Time;durP1;ratioP1;P1;durP2;ratioP2;P2;SDS_P1;SDS_P2;PMS_P1;PMS_P2;Temp;Humidity;BMP_temperature;BMP_pressure;BME280_temperature;BME280_humidity;BME280_pressure;Samples;Min_cycle;Max_cycle;Signal;HPM_P1;HPM_P2
2023/05/17 00:01:54;;;;;;;1.80;0.80;;;11.90;77.30;;;;;;5013141;28;20028;-83
2023/05/17 00:04:20;;;;;;;0.88;0.70;;;11.90;77.40;;;;;;5038753;28;20116;-85
2023/05/17 00:06:46;;;;;;;2.87;0.97;;;11.90;77.50;;;;;;5046190;28;20035;-85
2023/05/17 00:09:12;;;;;;;1.55;0.77;;;11.80;77.50;;;;;;5037819;28;20024;-84
2023/05/17 00:11:38;;;;;;;1.63;0.77;;;11.70;77.50;;;;;;5034626;28;20029;-83
2023/05/17 00:14:04;;;;;;;1.93;0.63;;;11.70;77.60;;;;;;5032603;28;20036;-83
2023/05/17 00:16:30;;;;;;;1.80;0.80;;;11.60;77.60;;;;;;4996438;28;20013;-84
2023/05/17 00:18:56;;;;;;;1.80;0.70;;;11.60;77.70;;;;;;5038595;28;20025;-83
2023/05/17 00:21:22;;;;;;;1.90;0.80;;;11.50;77.80;;;;;;5009729;28;20693;-86
2023/05/17 00:23:48;;;;;;;3.08;0.60;;;11.40;77.80;;;;;;5058079;28;20083;-85
2023/05/17 00:26:14;;;;;;;1.98;0.70;;;11.30;77.90;;;;;;5051798;28;20410;-84
2023/05/17 00:28:40;;;;;;;2.75;0.93;;;11.30;78.00;;;;;;5029411;28;20405;-84
2023/05/17 00:31:05;;;;;;;1.83;0.80;;;11.30;78.10;;;;;;4987220;28;20493;-83
2023/05/17 00:33:31;;;;;;;1.83;0.77;;;11.20;78.10;;;;;;5042431;28;20347;-85
2023/05/17 00:35:57;;;;;;;3.17;0.93;;;11.20;78.20;;;;;;5034754;28;20029;-83
2023/05/17 00:38:23;;;;;;;1.15;0.70;;;11.10;78.30;;;;;;5029059;28;20114;-83
2023/05/17 00:40:49;;;;;;;1.17;0.60;;;11.10;78.40;;;;;;5038487;28;20632;-84
2023/05/17 00:43:15;;;;;;;0.85;0.65;;;11.10;78.50;;;;;;5030143;28;20029;-83
2023/05/17 00:45:41;;;;;;;1.20;0.70;;;11.00;78.60;;;;;;5026460;28;20513;-85
2023/05/17 00:48:06;;;;;;;1.67;0.60;;;10.90;78.60;;;;;;5016380;28;20033;-84
2023/05/17 00:50:33;;;;;;;1.27;0.75;;;10.90;78.60;;;;;;5034638;28;20274;-85
2023/05/17 00:52:59;;;;;;;0.70;0.60;;;10.90;78.70;;;;;;5043922;28;20037;-83
2023/05/17 00:55:26;;;;;;;1.42;0.75;;;10.80;78.60;;;;;;5037673;28;20094;-84
2023/05/17 00:57:52;;;;;;;1.67;0.60;;;10.70;78.70;;;;;;5010143;28;20044;-84
2023/05/17 01:00:18;;;;;;;1.60;0.70;;;10.70;78.80;;;;;;5054404;28;20557;-83
2023/05/17 01:02:47;;;;;;;1.90;1.15;;;10.70;79.00;;;;;;5005023;28;21237;-85
2023/05/17 01:05:13;;;;;;;2.07;0.80;;;10.60;79.00;;;;;;5028436;28;20029;-83
2023/05/17 01:07:39;;;;;;;2.03;0.70;;;10.60;79.10;;;;;;5022885;28;20134;-85
2023/05/17 01:10:06;;;;;;;1.75;0.63;;;10.60;79.20;;;;;;5041940;28;20033;-86
2023/05/17 01:12:51;;;;;;;2.33;0.70;;;10.50;79.30;;;;;;5036250;28;20264;-85
2023/05/17 01:15:31;;;;;;;0.77;0.77;;;10.50;79.30;;;;;;5038282;28;20053;-83
2023/05/17 01:18:18;;;;;;;1.33;0.77;;;10.50;79.30;;;;;;5016752;28;20441;-86
2023/05/17 01:20:46;;;;;;;1.98;0.90;;;10.40;79.80;;;;;;5040127;28;20266;-83
2023/05/17 01:23:53;;;;;;;2.25;0.75;;;10.40;79.40;;;;;;5026406;28;20139;-84
2023/05/17 01:26:35;;;;;;;2.03;0.70;;;10.30;80.90;;;;;;5054764;28;20107;-84
2023/05/17 01:29:02;;;;;;;2.08;0.75;;;10.30;80.00;;;;;;5023419;28;20047;-85
2023/05/17 01:31:30;;;;;;;1.63;0.80;;;10.20;79.50;;;;;;5027048;28;20030;-83
2023/05/17 01:33:57;;;;;;;0.77;0.60;;;10.20;79.70;;;;;;4986990;28;20100;-85
2023/05/17 01:36:25;;;;;;;1.65;0.80;;;10.20;79.80;;;;;;5038424;28;20025;-84
2023/05/17 01:38:51;;;;;;;1.25;0.55;;;10.20;79.80;;;;;;5027613;28;20669;-86
2023/05/17 01:41:29;;;;;;;1.57;1.00;;;10.20;79.90;;;;;;5054875;28;20037;-83
2023/05/17 01:44:15;;;;;;;3.22;0.80;;;10.10;80.50;;;;;;5050395;28;20033;-84
2023/05/17 01:46:42;;;;;;;1.00;0.70;;;10.10;80.50;;;;;;5050456;28;20031;-85
2023/05/17 01:49:28;;;;;;;1.60;0.95;;;10.10;80.00;;;;;;4986865;28;20037;-85
2023/05/17 01:52:15;;;;;;;2.05;0.98;;;10.10;81.00;;;;;;5037356;28;20118;-86
2023/05/17 01:54:57;;;;;;;2.37;0.83;;;10.00;80.60;;;;;;5034493;28;21360;-85
2023/05/17 01:57:31;;;;;;;2.97;0.90;;;10.00;80.90;;;;;;5034100;28;20029;-84
2023/05/17 02:00:00;;;;;;;1.13;0.70;;;9.90;80.40;;;;;;5041053;28;20104;-84
2023/05/17 02:02:27;;;;;;;2.05;0.85;;;9.90;80.20;;;;;;5028786;28;20028;-83
2023/05/17 02:04:53;;;;;;;1.92;0.80;;;9.90;80.20;;;;;;5008326;28;20028;-85
2023/05/17 02:07:19;;;;;;;2.07;0.80;;;9.90;80.30;;;;;;5035186;28;20036;-83
2023/05/17 02:09:45;;;;;;;2.75;0.90;;;9.80;80.30;;;;;;5004878;28;20587;-86
2023/05/17 02:12:11;;;;;;;1.38;0.80;;;9.80;80.30;;;;;;5036823;28;20112;-85
2023/05/17 02:14:37;;;;;;;1.67;0.90;;;9.80;80.40;;;;;;5029933;28;20029;-84
2023/05/17 02:17:04;;;;;;;1.70;0.90;;;9.70;80.40;;;;;;5038103;28;20068;-85
2023/05/17 02:19:31;;;;;;;1.08;0.80;;;9.70;80.50;;;;;;5006515;28;20025;-83
2023/05/17 02:21:56;;;;;;;2.20;1.10;;;9.70;80.50;;;;;;5013686;28;20112;-85
2023/05/17 02:24:22;;;;;;;1.13;0.90;;;9.70;80.60;;;;;;5043247;28;20459;-83
2023/05/17 02:26:48;;;;;;;1.77;0.80;;;9.70;80.70;;;;;;5028115;28;20549;-85
2023/05/17 02:29:14;;;;;;;2.08;1.00;;;9.70;80.80;;;;;;5035238;28;20025;-83
2023/05/17 02:31:40;;;;;;;1.63;1.00;;;9.60;80.80;;;;;;5032304;28;20056;-84
2023/05/17 02:34:06;;;;;;;1.77;1.00;;;9.60;80.90;;;;;;5037366;28;20053;-84
2023/05/17 02:36:32;;;;;;;3.37;1.03;;;9.60;81.20;;;;;;4998464;28;20988;-83
2023/05/17 02:38:57;;;;;;;2.55;0.90;;;9.50;81.10;;;;;;5037416;28;20024;-85
2023/05/17 02:41:23;;;;;;;1.90;1.00;;;9.50;81.10;;;;;;5023464;28;20048;-83
2023/05/17 02:43:49;;;;;;;2.47;1.20;;;9.50;81.10;;;;;;5032924;28;20185;-85
2023/05/17 02:46:15;;;;;;;1.55;0.80;;;9.50;81.10;;;;;;5031878;28;20120;-83
2023/05/17 02:48:41;;;;;;;2.20;0.90;;;9.50;81.10;;;;;;5048875;28;20175;-84
2023/05/17 02:51:07;;;;;;;2.43;0.90;;;9.40;81.10;;;;;;5026395;28;20069;-84
2023/05/17 02:53:32;;;;;;;1.83;0.90;;;9.40;81.10;;;;;;5021651;28;20067;-84
2023/05/17 02:55:58;;;;;;;2.63;1.03;;;9.40;81.20;;;;;;5024510;28;20275;-85
2023/05/17 02:58:25;;;;;;;1.35;0.82;;;9.40;81.30;;;;;;5032714;28;20032;-83
2023/05/17 03:00:51;;;;;;;1.10;0.80;;;9.30;81.40;;;;;;5032446;28;20036;-85
2023/05/17 03:03:17;;;;;;;1.40;0.90;;;9.30;81.40;;;;;;5035296;28;20090;-83
2023/05/17 03:05:43;;;;;;;2.15;0.95;;;9.30;81.40;;;;;;5025685;28;20361;-84
2023/05/17 03:08:09;;;;;;;2.05;1.10;;;9.30;81.50;;;;;;5028515;28;20390;-85
2023/05/17 03:10:35;;;;;;;1.30;1.00;;;9.20;81.50;;;;;;5035389;28;20217;-84
2023/05/17 03:13:01;;;;;;;2.17;1.08;;;9.20;81.50;;;;;;5010356;28;20551;-83
2023/05/17 03:15:28;;;;;;;1.63;0.95;;;9.20;81.60;;;;;;5034952;28;20021;-83
2023/05/17 03:17:55;;;;;;;1.73;1.00;;;9.10;81.60;;;;;;5034862;28;20478;-83
2023/05/17 03:20:22;;;;;;;2.10;1.00;;;9.10;81.70;;;;;;5030824;28;20580;-82
2023/05/17 03:22:48;;;;;;;1.60;1.00;;;9.10;81.80;;;;;;5015897;28;26206;-85
2023/05/17 03:25:14;;;;;;;1.70;0.90;;;9.10;81.80;;;;;;5019038;28;20025;-82
2023/05/17 03:27:40;;;;;;;1.55;1.08;;;9.10;81.80;;;;;;5018591;28;20378;-83
2023/05/17 03:30:07;;;;;;;1.77;1.10;;;9.00;81.80;;;;;;5055634;28;20028;-84
2023/05/17 03:32:33;;;;;;;2.50;1.10;;;9.00;81.90;;;;;;5018247;28;21126;-85
2023/05/17 03:34:59;;;;;;;2.80;1.10;;;9.00;81.90;;;;;;5042567;28;20092;-84
2023/05/17 03:37:25;;;;;;;2.25;1.05;;;9.00;82.10;;;;;;5024795;28;20052;-82
2023/05/17 03:39:50;;;;;;;2.13;1.10;;;9.00;82.30;;;;;;5029849;28;20036;-84
2023/05/17 03:42:16;;;;;;;2.58;1.48;;;9.00;82.50;;;;;;5036921;28;20386;-81
2023/05/17 03:44:42;;;;;;;3.03;1.50;;;9.00;82.60;;;;;;5028423;28;20080;-84
2023/05/17 03:47:08;;;;;;;2.85;1.40;;;9.00;82.70;;;;;;5042363;28;20379;-85
2023/05/17 03:49:34;;;;;;;3.53;1.57;;;9.10;82.90;;;;;;5050284;28;20786;-84
2023/05/17 03:51:59;;;;;;;2.03;1.20;;;9.10;83.00;;;;;;5030116;28;20056;-84
2023/05/17 03:54:25;;;;;;;3.07;1.10;;;9.10;83.10;;;;;;5020711;28;20041;-81
2023/05/17 03:56:51;;;;;;;1.53;1.03;;;9.10;83.00;;;;;;5033191;28;20025;-83
2023/05/17 03:59:17;;;;;;;1.98;1.00;;;9.20;83.40;;;;;;5026942;28;20017;-82
2023/05/17 04:01:44;;;;;;;2.90;1.20;;;9.20;83.60;;;;;;5053061;28;20024;-84
2023/05/17 04:04:10;;;;;;;1.70;1.33;;;9.20;83.70;;;;;;5038759;28;20036;-84
2023/05/17 04:06:36;;;;;;;1.83;1.20;;;9.30;83.80;;;;;;5025116;28;20048;-84
2023/05/17 04:09:02;;;;;;;2.33;1.10;;;9.30;84.00;;;;;;5039689;28;20383;-84
2023/05/17 04:11:28;;;;;;;2.00;1.13;;;9.40;84.10;;;;;;5009251;28;20041;-82
2023/05/17 04:13:55;;;;;;;2.75;1.20;;;9.40;84.20;;;;;;5041457;28;20137;-85
2023/05/17 04:16:21;;;;;;;3.23;1.30;;;9.50;84.40;;;;;;5040482;28;20033;-82
2023/05/17 04:18:51;;;;;;;3.90;1.50;;;9.60;84.50;;;;;;5037508;28;20263;-84
2023/05/17 04:21:17;;;;;;;2.50;1.42;;;9.60;84.60;;;;;;5034401;28;20013;-83
2023/05/17 04:23:43;;;;;;;2.78;1.35;;;9.70;84.80;;;;;;5048008;28;20041;-83
2023/05/17 04:26:09;;;;;;;2.33;1.30;;;9.70;85.00;;;;;;5010833;28;20074;-84
2023/05/17 04:28:35;;;;;;;2.08;1.25;;;9.80;85.20;;;;;;5025176;28;20494;-85
2023/05/17 04:31:01;;;;;;;2.42;1.20;;;9.80;85.30;;;;;;5037101;28;20096;-84
2023/05/17 04:33:27;;;;;;;2.10;1.17;;;9.90;85.40;;;;;;5035718;28;20025;-83
2023/05/17 04:35:56;;;;;;;2.17;1.13;;;9.90;85.40;;;;;;5021589;28;20370;-84
2023/05/17 04:38:22;;;;;;;2.78;1.27;;;10.00;85.80;;;;;;5061106;28;20067;-83
2023/05/17 04:40:48;;;;;;;1.87;1.07;;;10.10;85.70;;;;;;5010469;28;20031;-85
2023/05/17 04:43:14;;;;;;;2.63;1.30;;;10.20;85.80;;;;;;5042837;28;20013;-82
2023/05/17 04:45:40;;;;;;;2.92;1.20;;;10.20;85.80;;;;;;5023874;28;20040;-84
2023/05/17 04:48:06;;;;;;;2.43;1.40;;;10.20;85.90;;;;;;5055278;28;20040;-83
2023/05/17 04:50:32;;;;;;;2.55;1.50;;;10.30;86.10;;;;;;5034478;28;20041;-84
2023/05/17 04:52:57;;;;;;;2.53;1.42;;;10.30;86.10;;;;;;5038788;28;20049;-84
2023/05/17 04:55:24;;;;;;;3.43;1.40;;;10.40;86.30;;;;;;5028729;28;20061;-83
2023/05/17 04:57:50;;;;;;;2.88;1.40;;;10.40;86.50;;;;;;5044038;28;20628;-84
2023/05/17 05:00:16;;;;;;;3.28;1.50;;;10.50;86.50;;;;;;5053109;28;20021;-82
2023/05/17 05:02:42;;;;;;;2.72;1.45;;;10.60;87.30;;;;;;5010228;28;20080;-84
2023/05/17 05:05:10;;;;;;;2.20;1.30;;;10.60;86.80;;;;;;5037446;28;20489;-83
2023/05/17 05:07:38;;;;;;;3.10;1.40;;;10.70;87.00;;;;;;5020783;28;20044;-85
2023/05/17 05:10:05;;;;;;;2.30;1.50;;;10.80;87.20;;;;;;5029336;28;20017;-83
2023/05/17 05:12:31;;;;;;;3.13;1.40;;;10.90;87.20;;;;;;5029438;28;20033;-85
2023/05/17 05:14:56;;;;;;;3.00;1.33;;;10.90;87.30;;;;;;5024435;28;20017;-83
2023/05/17 05:17:22;;;;;;;2.00;1.52;;;11.00;87.30;;;;;;5028799;28;20383;-84
2023/05/17 05:19:49;;;;;;;3.87;1.60;;;11.00;87.50;;;;;;5036126;28;20090;-84
2023/05/17 05:22:15;;;;;;;2.85;1.60;;;11.10;87.60;;;;;;5017209;28;20095;-85
2023/05/17 05:24:41;;;;;;;2.30;1.38;;;11.20;87.60;;;;;;5036779;28;20607;-85
2023/05/17 05:27:07;;;;;;;3.67;1.58;;;11.20;87.60;;;;;;5000533;28;20036;-83
2023/05/17 05:29:33;;;;;;;2.73;1.50;;;11.30;87.70;;;;;;5040257;28;20021;-85
2023/05/17 05:31:58;;;;;;;2.83;1.60;;;11.40;87.80;;;;;;5035617;28;20646;-82
2023/05/17 05:34:26;;;;;;;2.90;1.58;;;11.40;87.90;;;;;;5030354;28;20261;-85
2023/05/17 05:36:51;;;;;;;4.10;1.63;;;11.50;88.00;;;;;;5022072;28;20056;-86
2023/05/17 05:39:17;;;;;;;2.80;1.63;;;11.60;88.20;;;;;;5019059;28;20677;-85
2023/05/17 05:41:43;;;;;;;3.53;1.90;;;11.70;88.50;;;;;;4999045;28;20024;-84
2023/05/17 05:44:09;;;;;;;3.63;1.73;;;11.70;88.70;;;;;;5035420;28;20041;-83
2023/05/17 05:46:35;;;;;;;3.47;1.80;;;11.80;88.80;;;;;;5022119;28;20025;-85
2023/05/17 05:49:01;;;;;;;2.80;1.73;;;11.80;88.80;;;;;;5020572;28;20115;-84
2023/05/17 05:51:27;;;;;;;2.70;1.60;;;12.00;89.00;;;;;;5008404;28;20032;-82
2023/05/17 05:53:53;;;;;;;3.20;1.80;;;12.00;89.20;;;;;;5029802;28;20118;-83
2023/05/17 05:56:18;;;;;;;3.42;1.95;;;12.10;89.40;;;;;;5033907;28;20277;-86
2023/05/17 05:58:44;;;;;;;3.00;1.90;;;12.20;89.60;;;;;;4991476;28;20013;-84
2023/05/17 06:01:10;;;;;;;3.72;1.77;;;12.30;90.00;;;;;;5020163;28;20126;-81
2023/05/17 06:03:36;;;;;;;3.42;1.98;;;12.40;90.10;;;;;;5035383;28;20044;-81
2023/05/17 06:06:02;;;;;;;3.40;1.80;;;12.50;90.20;;;;;;5032210;28;20378;-83
2023/05/17 06:08:27;;;;;;;4.22;1.90;;;12.70;90.30;;;;;;5036895;28;20449;-86
2023/05/17 06:10:53;;;;;;;3.27;1.83;;;12.80;90.40;;;;;;5021608;28;20060;-82
2023/05/17 06:13:19;;;;;;;3.85;2.22;;;12.90;90.50;;;;;;5002476;28;21003;-84
2023/05/17 06:15:45;;;;;;;3.90;2.10;;;13.10;90.60;;;;;;5016211;28;20037;-86
2023/05/17 06:18:11;;;;;;;3.13;2.08;;;13.30;90.80;;;;;;5006832;28;20317;-82
2023/05/17 06:20:37;;;;;;;5.50;2.03;;;13.40;90.80;;;;;;5038750;28;20415;-83
2023/05/17 06:23:03;;;;;;;3.85;2.15;;;13.50;90.90;;;;;;5029660;28;20106;-81
2023/05/17 06:25:29;;;;;;;5.53;2.20;;;13.70;90.90;;;;;;5022118;28;20043;-84
2023/05/17 06:27:55;;;;;;;4.83;2.47;;;13.80;91.00;;;;;;5020789;28;20028;-82
2023/05/17 06:30:21;;;;;;;3.45;2.05;;;14.00;91.00;;;;;;5011649;28;20037;-83
2023/05/17 06:32:47;;;;;;;5.70;2.40;;;14.20;91.00;;;;;;5039258;28;20025;-79
2023/05/17 06:35:13;;;;;;;5.53;2.53;;;14.30;91.00;;;;;;5031426;28;20021;-80
2023/05/17 06:37:38;;;;;;;5.82;2.60;;;14.40;91.00;;;;;;5022032;28;20126;-80
2023/05/17 06:40:06;;;;;;;4.23;2.40;;;14.60;91.00;;;;;;5021890;28;20025;-84
2023/05/17 06:42:32;;;;;;;4.60;1.90;;;14.70;91.00;;;;;;5016451;28;20025;-84
2023/05/17 06:44:58;;;;;;;6.13;2.30;;;14.80;90.80;;;;;;4994363;28;20036;-82
2023/05/17 06:47:25;;;;;;;5.95;2.30;;;14.90;91.10;;;;;;5023091;28;20520;-83
2023/05/17 06:49:51;;;;;;;5.60;2.30;;;15.00;90.70;;;;;;5030733;28;20029;-80
2023/05/17 06:52:17;;;;;;;4.20;2.03;;;15.00;90.60;;;;;;5034751;28;20040;-85
2023/05/17 06:54:43;;;;;;;5.10;2.08;;;15.10;90.60;;;;;;5016169;28;20029;-85
2023/05/17 06:57:11;;;;;;;4.47;1.90;;;15.20;90.50;;;;;;4997782;28;20626;-79
2023/05/17 06:59:37;;;;;;;5.65;2.13;;;15.20;90.40;;;;;;4995114;28;20663;-80
2023/05/17 07:02:03;;;;;;;6.07;2.45;;;15.30;90.30;;;;;;5006600;28;20028;-80
2023/05/17 07:04:29;;;;;;;4.43;1.80;;;15.30;90.30;;;;;;5024010;28;20119;-80
2023/05/17 07:06:55;;;;;;;5.43;2.10;;;15.30;90.20;;;;;;5016994;28;20056;-84
2023/05/17 07:09:21;;;;;;;4.80;2.13;;;15.40;90.20;;;;;;5032924;28;20333;-82
2023/05/17 07:11:47;;;;;;;4.43;1.90;;;15.40;90.20;;;;;;5014558;28;20036;-81
2023/05/17 07:14:13;;;;;;;6.07;2.20;;;15.40;90.50;;;;;;5020301;28;20041;-80
2023/05/17 07:16:38;;;;;;;4.43;2.05;;;15.50;90.60;;;;;;4997565;28;20146;-81
2023/05/17 07:19:04;;;;;;;5.53;2.08;;;15.60;90.70;;;;;;5041855;28;20021;-78
2023/05/17 07:21:31;;;;;;;5.03;2.20;;;15.80;91.00;;;;;;5026717;28;20686;-78
2023/05/17 07:23:57;;;;;;;6.82;2.00;;;15.90;91.00;;;;;;5040219;28;20482;-82
2023/05/17 07:26:23;;;;;;;4.72;1.80;;;16.10;91.10;;;;;;5048158;28;20040;-82
2023/05/17 07:28:50;;;;;;;5.73;1.70;;;16.20;91.10;;;;;;5024823;28;20072;-81
2023/05/17 07:31:16;;;;;;;4.97;1.58;;;16.40;91.00;;;;;;5008192;28;20064;-78
2023/05/17 07:33:42;;;;;;;4.93;1.80;;;16.50;90.90;;;;;;5037244;28;20238;-82
2023/05/17 07:36:08;;;;;;;4.90;1.83;;;16.70;90.90;;;;;;5053654;28;20056;-80
2023/05/17 07:38:34;;;;;;;4.20;1.60;;;16.90;90.60;;;;;;5032176;28;20213;-84
2023/05/17 07:41:02;;;;;;;3.75;1.77;;;17.00;90.40;;;;;;5038410;28;20114;-79
2023/05/17 07:43:28;;;;;;;4.57;1.70;;;17.10;90.10;;;;;;5020351;28;20306;-79
2023/05/17 07:45:54;;;;;;;4.37;1.90;;;17.20;90.10;;;;;;5012301;28;20104;-79
2023/05/17 07:48:20;;;;;;;5.97;1.90;;;17.30;90.00;;;;;;5033204;28;20426;-80
2023/05/17 07:50:45;;;;;;;3.28;1.40;;;17.40;89.00;;;;;;5034153;28;20513;-81
2023/05/17 07:53:13;;;;;;;3.80;1.63;;;17.40;88.20;;;;;;5026869;28;20037;-80
2023/05/17 07:55:39;;;;;;;2.95;1.40;;;17.30;87.20;;;;;;5032218;28;20090;-82
2023/05/17 07:58:04;;;;;;;4.82;1.75;;;17.30;87.60;;;;;;5039055;28;20492;-83
2023/05/17 08:00:31;;;;;;;3.27;1.50;;;17.30;87.90;;;;;;4975069;28;28059;-80
2023/05/17 08:02:57;;;;;;;3.97;1.60;;;17.30;88.10;;;;;;5013709;28;20386;-84
2023/05/17 08:05:23;;;;;;;3.45;1.58;;;17.40;88.80;;;;;;5024916;28;20033;-79
2023/05/17 08:07:49;;;;;;;3.77;1.73;;;17.50;90.10;;;;;;5025036;28;20029;-80
2023/05/17 08:10:15;;;;;;;3.78;1.50;;;17.80;91.00;;;;;;5028797;28;20025;-80
2023/05/17 08:12:41;;;;;;;2.78;1.50;;;18.20;91.50;;;;;;5053309;28;20052;-82
2023/05/17 08:15:07;;;;;;;3.60;1.60;;;18.70;89.50;;;;;;5022157;28;20124;-79
2023/05/17 08:17:33;;;;;;;2.83;1.45;;;19.10;90.10;;;;;;5011639;28;20029;-80
2023/05/17 08:19:58;;;;;;;2.55;1.38;;;19.60;90.40;;;;;;5027561;28;20098;-81
2023/05/17 08:22:25;;;;;;;3.87;1.60;;;20.00;90.00;;;;;;5014125;28;20202;-83
2023/05/17 08:24:51;;;;;;;3.22;1.40;;;20.50;86.40;;;;;;5021129;28;20025;-82
2023/05/17 08:27:17;;;;;;;2.95;1.30;;;20.70;85.20;;;;;;5030886;28;20056;-80
2023/05/17 08:29:43;;;;;;;4.07;1.80;;;21.00;85.30;;;;;;5005180;28;20086;-81
2023/05/17 08:32:09;;;;;;;3.28;1.33;;;21.30;85.50;;;;;;5019103;28;20036;-81
2023/05/17 08:34:35;;;;;;;4.20;1.60;;;21.50;84.50;;;;;;5038119;28;20045;-80
2023/05/17 08:37:01;;;;;;;3.00;1.50;;;21.80;82.90;;;;;;5026512;28;20029;-81
2023/05/17 08:39:27;;;;;;;2.87;1.50;;;22.00;82.00;;;;;;5017840;28;20497;-78
2023/05/17 08:41:52;;;;;;;4.65;1.60;;;22.20;82.20;;;;;;5016963;28;20116;-80
2023/05/17 08:44:19;;;;;;;4.17;1.40;;;22.30;80.70;;;;;;5033298;28;20031;-79
2023/05/17 08:46:52;;;;;;;3.75;1.40;;;22.30;79.10;;;;;;5019853;28;20499;-80
2023/05/17 08:49:21;;;;;;;2.65;1.23;;;22.10;77.90;;;;;;5033504;28;20024;-78
2023/05/17 08:51:49;;;;;;;3.10;1.33;;;22.00;77.70;;;;;;5042776;28;20041;-79
2023/05/17 08:54:15;;;;;;;3.60;1.30;;;21.90;77.70;;;;;;5039575;28;20127;-80
2023/05/17 08:56:42;;;;;;;3.72;1.52;;;21.90;79.30;;;;;;4994748;28;20025;-81
2023/05/17 08:59:12;;;;;;;3.22;1.40;;;22.00;79.10;;;;;;5034486;28;20191;-80
2023/05/17 09:01:40;;;;;;;4.07;1.60;;;22.10;80.30;;;;;;5027362;28;20434;-81
2023/05/17 09:04:08;;;;;;;4.68;1.40;;;22.30;79.80;;;;;;5012696;28;20611;-84
2023/05/17 09:06:34;;;;;;;3.23;1.40;;;22.50;79.60;;;;;;5050835;28;20493;-81
2023/05/17 09:09:01;;;;;;;3.30;1.30;;;22.70;80.30;;;;;;5024906;28;20120;-79
2023/05/17 09:11:31;;;;;;;3.55;1.23;;;23.00;79.50;;;;;;5013405;28;20693;-83
2023/05/17 09:14:03;;;;;;;3.22;1.33;;;23.30;77.00;;;;;;5033584;28;20102;-85
2023/05/17 09:16:32;;;;;;;3.37;1.10;;;23.50;77.10;;;;;;5035989;28;20064;-79
2023/05/17 09:18:58;;;;;;;2.85;1.30;;;23.80;79.20;;;;;;4999405;28;20248;-82
2023/05/17 09:21:25;;;;;;;4.07;1.40;;;24.00;76.20;;;;;;5038291;28;20504;-80
2023/05/17 09:23:52;;;;;;;3.33;1.20;;;24.20;76.30;;;;;;5026477;28;20566;-82
2023/05/17 09:26:19;;;;;;;2.85;1.17;;;24.30;75.10;;;;;;5042957;28;20063;-82
2023/05/17 09:28:46;;;;;;;3.53;1.33;;;24.50;75.40;;;;;;5034543;28;20075;-81
2023/05/17 09:31:15;;;;;;;3.72;1.30;;;24.70;74.80;;;;;;5047444;28;20111;-79
2023/05/17 09:33:46;;;;;;;3.90;1.30;;;24.80;73.90;;;;;;5008926;28;20036;-79
2023/05/17 09:36:22;;;;;;;2.85;1.30;;;24.90;71.80;;;;;;5019443;28;20057;-79
2023/05/17 09:39:10;;;;;;;3.67;1.50;;;25.10;71.40;;;;;;5028426;28;20482;-82
2023/05/17 09:41:41;;;;;;;2.80;1.20;;;25.30;69.20;;;;;;5025250;28;20033;-81
2023/05/17 09:44:11;;;;;;;3.33;1.50;;;25.50;70.80;;;;;;5034393;28;20142;-82
2023/05/17 09:46:47;;;;;;;3.53;1.60;;;25.60;71.40;;;;;;5038567;28;20078;-79
2023/05/17 09:49:14;;;;;;;3.63;1.38;;;25.80;67.60;;;;;;5007580;28;25931;-79
2023/05/17 09:51:46;;;;;;;3.85;1.38;;;25.90;71.80;;;;;;5031973;28;20040;-80
2023/05/17 09:54:12;;;;;;;4.13;1.30;;;26.20;71.80;;;;;;5026260;28;20041;-81
2023/05/17 09:56:38;;;;;;;2.58;1.42;;;26.40;69.40;;;;;;5037525;28;20086;-82
2023/05/17 09:59:11;;;;;;;3.92;1.33;;;26.50;68.40;;;;;;5023648;28;20413;-84
2023/05/17 10:01:40;;;;;;;2.83;1.33;;;26.60;65.50;;;;;;5033079;28;20037;-80
2023/05/17 10:04:08;;;;;;;2.57;1.10;;;26.70;67.00;;;;;;5007551;28;20517;-83
2023/05/17 10:06:38;;;;;;;2.25;1.10;;;26.80;67.20;;;;;;5035916;28;20025;-82
2023/05/17 10:09:07;;;;;;;2.78;1.20;;;26.90;65.30;;;;;;5026749;28;20033;-80
2023/05/17 10:11:36;;;;;;;2.53;1.08;;;26.90;65.90;;;;;;5046120;28;20033;-79
2023/05/17 10:14:05;;;;;;;2.35;1.10;;;27.10;65.50;;;;;;5013496;28;20325;-78
2023/05/17 10:16:35;;;;;;;2.93;1.00;;;27.20;65.30;;;;;;5037927;28;20037;-81
2023/05/17 10:19:02;;;;;;;2.65;0.90;;;27.30;63.10;;;;;;4972424;28;20524;-79
2023/05/17 10:21:31;;;;;;;3.45;1.33;;;27.40;64.60;;;;;;5023502;28;20068;-83
2023/05/17 10:24:04;;;;;;;3.00;0.98;;;27.40;62.20;;;;;;5039770;28;20037;-80
2023/05/17 10:26:31;;;;;;;2.63;1.08;;;27.50;59.90;;;;;;5039011;28;20028;-83
2023/05/17 10:29:00;;;;;;;3.63;1.20;;;27.50;62.20;;;;;;5014824;28;20157;-82
2023/05/17 10:31:31;;;;;;;2.50;1.20;;;27.40;60.20;;;;;;5051980;28;20215;-79
2023/05/17 10:34:00;;;;;;;2.75;1.00;;;27.30;59.00;;;;;;5019805;28;20351;-82
2023/05/17 10:36:26;;;;;;;2.22;0.98;;;27.10;59.90;;;;;;5014596;28;20055;-81
2023/05/17 10:38:52;;;;;;;2.17;1.10;;;26.80;59.30;;;;;;5037236;28;20494;-84
2023/05/17 10:41:22;;;;;;;2.50;1.20;;;26.70;58.60;;;;;;4991666;28;20514;-79
2023/05/17 10:43:49;;;;;;;2.10;0.93;;;26.50;57.90;;;;;;5012789;28;20412;-80
2023/05/17 10:46:20;;;;;;;3.47;1.33;;;26.40;59.80;;;;;;5035403;28;20017;-85
2023/05/17 10:48:49;;;;;;;2.75;1.17;;;26.40;60.00;;;;;;5028941;28;20029;-79
2023/05/17 10:51:17;;;;;;;3.90;1.13;;;26.50;58.90;;;;;;4988850;28;20413;-79
2023/05/17 10:54:17;;;;;;;3.43;1.13;;;26.60;59.90;;;;;;5033591;28;20140;-79
2023/05/17 10:56:50;;;;;;;2.67;1.00;;;26.70;55.70;;;;;;5018563;28;20024;-79
2023/05/17 10:59:28;;;;;;;3.50;1.30;;;26.80;57.80;;;;;;5020088;28;20021;-83
2023/05/17 11:02:07;;;;;;;2.78;1.20;;;27.00;55.80;;;;;;5016479;28;20679;-80
2023/05/17 11:04:40;;;;;;;3.75;1.20;;;27.10;56.60;;;;;;5030529;28;20642;-79
2023/05/17 11:07:24;;;;;;;3.10;1.20;;;27.20;57.40;;;;;;5006239;28;20120;-80
2023/05/17 11:10:09;;;;;;;1.98;1.10;;;27.40;57.00;;;;;;5031720;28;20099;-80
2023/05/17 11:12:35;;;;;;;2.90;1.10;;;27.40;54.40;;;;;;5040791;28;20341;-80
2023/05/17 11:15:07;;;;;;;3.87;1.40;;;27.40;54.00;;;;;;5018430;28;20596;-82
2023/05/17 11:17:42;;;;;;;2.53;1.13;;;27.30;52.00;;;;;;5014073;28;20041;-79
2023/05/17 11:20:23;;;;;;;2.67;1.23;;;27.20;49.90;;;;;;4999596;28;20612;-80
2023/05/17 11:23:01;;;;;;;4.20;1.17;;;27.00;51.20;;;;;;5024992;28;20025;-82
2023/05/17 11:25:29;;;;;;;3.03;1.15;;;26.90;52.30;;;;;;5032292;28;20041;-79
2023/05/17 11:27:55;;;;;;;2.97;1.17;;;26.90;53.70;;;;;;5021621;28;20052;-81
2023/05/17 11:30:27;;;;;;;2.30;1.10;;;27.00;53.70;;;;;;5031608;28;20029;-81
2023/05/17 11:33:04;;;;;;;2.88;1.05;;;27.10;54.20;;;;;;5005994;28;20040;-83
2023/05/17 11:35:37;;;;;;;4.22;1.05;;;27.30;52.20;;;;;;5062773;28;20543;-79
2023/05/17 11:38:16;;;;;;;2.37;1.00;;;27.40;48.70;;;;;;5007460;28;20634;-82
2023/05/17 11:40:43;;;;;;;3.38;1.08;;;27.30;50.60;;;;;;5031431;28;20111;-80
2023/05/17 11:43:21;;;;;;;3.08;1.13;;;27.20;51.40;;;;;;5007026;28;20331;-79
2023/05/17 11:45:49;;;;;;;3.58;1.15;;;27.20;50.20;;;;;;5023022;28;20444;-79
2023/05/17 11:48:17;;;;;;;1.75;1.00;;;27.30;52.50;;;;;;5048319;28;20033;-80
2023/05/17 11:50:45;;;;;;;3.10;1.23;;;27.50;51.50;;;;;;5001439;28;20500;-79
2023/05/17 11:53:12;;;;;;;2.85;1.27;;;27.60;49.50;;;;;;5036310;28;20268;-79
2023/05/17 11:55:50;;;;;;;2.92;1.08;;;27.60;49.10;;;;;;5033577;28;20032;-79
2023/05/17 11:58:24;;;;;;;2.72;1.10;;;27.50;48.80;;;;;;5026303;28;20624;-80
2023/05/17 12:00:54;;;;;;;2.55;1.00;;;27.50;50.20;;;;;;5033258;28;20456;-80
2023/05/17 12:03:23;;;;;;;2.07;0.90;;;27.60;49.50;;;;;;5029144;28;20421;-81
2023/05/17 12:06:08;;;;;;;2.30;1.02;;;27.70;49.40;;;;;;5022497;28;20057;-79
2023/05/17 12:08:36;;;;;;;3.58;1.00;;;27.70;46.60;;;;;;5008535;28;20481;-79
2023/05/17 12:11:03;;;;;;;3.47;1.00;;;27.80;49.80;;;;;;5030546;28;20029;-80
2023/05/17 12:13:30;;;;;;;2.47;1.10;;;27.90;50.40;;;;;;5037570;28;20371;-80
2023/05/17 12:15:58;;;;;;;2.23;0.90;;;28.00;50.50;;;;;;5023767;28;20457;-79
2023/05/17 12:18:35;;;;;;;3.35;0.98;;;28.10;49.20;;;;;;5026103;28;20437;-78
2023/05/17 12:21:01;;;;;;;2.53;1.02;;;28.20;48.00;;;;;;5022018;28;20888;-80
2023/05/17 12:23:42;;;;;;;2.95;0.88;;;28.20;49.00;;;;;;5003436;28;20419;-79
2023/05/17 12:26:08;;;;;;;2.25;0.80;;;28.20;46.50;;;;;;5028471;28;20257;-79
2023/05/17 12:28:37;;;;;;;1.93;1.00;;;28.10;49.30;;;;;;5040106;28;20068;-79
2023/05/17 12:31:05;;;;;;;3.05;1.10;;;28.20;48.10;;;;;;5025391;28;20406;-79
2023/05/17 12:33:34;;;;;;;1.58;0.98;;;28.20;46.40;;;;;;5042728;28;20494;-79
2023/05/17 12:36:02;;;;;;;1.25;0.70;;;28.20;47.00;;;;;;5055891;28;20615;-79
2023/05/17 12:38:32;;;;;;;2.75;0.90;;;28.10;47.50;;;;;;5026962;28;20040;-83
2023/05/17 12:41:05;;;;;;;2.63;0.90;;;28.10;47.60;;;;;;5029453;28;20287;-80
2023/05/17 12:43:37;;;;;;;3.20;1.20;;;28.10;47.30;;;;;;5020433;28;21092;-84
2023/05/17 12:46:07;;;;;;;3.55;1.10;;;28.00;44.60;;;;;;5042089;28;20033;-81
2023/05/17 12:48:34;;;;;;;4.40;1.23;;;27.80;44.00;;;;;;5042149;28;20036;-79
2023/05/17 12:51:13;;;;;;;2.88;1.10;;;27.60;44.90;;;;;;5034830;28;20037;-79
2023/05/17 12:53:43;;;;;;;3.13;1.10;;;27.30;44.30;;;;;;4999422;28;20158;-80